Time;durP1;ratioP1;P1;durP2;ratioP2;P2;SDS_P1;SDS_P2;PMS_P1;PMS_P2;Temp;Humidity;BMP_temperature;BMP_pressure;BME280_temperature;BME280_humidity;BME280_pressure;Samples;Min_cycle;Max_cycle;Signal;HPM_P1;HPM_P2
2022/03/01 13:56:40;;;;;;;20.02;9.07;;;;;;;8.30;35.76;102770.00;5119425;27;20476;-65
2022/03/01 13:59:06;;;;;;;31.88;11.98;;;;;;;8.07;36.30;102769.25;5120055;28;20062;-60
2022/03/01 14:01:33;;;;;;;31.67;13.95;;;;;;;7.89;36.98;102769.50;5122807;28;20491;-62
2022/03/01 14:04:03;;;;;;;14.10;7.47;;;;;;;7.62;36.03;102768.50;5122765;27;20720;-56
2022/03/01 14:06:30;;;;;;;15.40;6.72;;;;;;;7.52;36.58;102765.59;5122600;28;20059;-52
2022/03/01 14:08:56;;;;;;;15.15;6.63;;;;;;;7.42;36.44;102758.34;5120762;28;20043;-59
2022/03/01 14:11:23;;;;;;;7.95;5.32;;;;;;;7.30;36.51;102747.56;5116688;28;20043;-59
2022/03/01 14:13:52;;;;;;;12.15;6.95;;;;;;;7.17;36.58;102751.38;5122661;28;20475;-58
2022/03/01 14:16:21;;;;;;;11.70;5.60;;;;;;;7.07;36.92;102748.38;5124355;28;20048;-60
2022/03/01 14:18:50;;;;;;;9.82;5.38;;;;;;;6.99;37.07;102744.66;5123941;27;20526;-65
2022/03/01 14:21:20;;;;;;;32.15;12.93;;;;;;;6.95;37.97;102747.09;5125697;28;20430;-63
2022/03/01 14:23:47;;;;;;;17.55;7.03;;;;;;;6.89;37.75;102736.56;5115629;28;20502;-62
2022/03/01 14:26:14;;;;;;;16.83;8.18;;;;;;;6.83;38.04;102733.75;5121852;28;20051;-63
2022/03/01 14:28:52;;;;;;;14.27;7.40;;;;;;;6.80;37.96;102736.22;5123973;28;20486;-63
2022/03/01 14:31:19;;;;;;;29.13;11.00;;;;;;;6.73;38.11;102735.88;5120851;28;20058;-62
2022/03/01 14:33:45;;;;;;;20.08;8.27;;;;;;;6.68;38.02;102727.97;5119379;27;20056;-62
2022/03/01 14:36:12;;;;;;;19.92;8.02;;;;;;;6.63;38.15;102729.50;5120240;28;20078;-61
2022/03/01 14:38:39;;;;;;;20.00;8.32;;;;;;;6.56;38.33;102725.81;5120289;28;20468;-66
2022/03/01 14:41:05;;;;;;;32.17;8.82;;;;;;;6.48;38.55;102723.75;5116263;28;20047;-64
2022/03/01 14:43:32;;;;;;;20.05;9.30;;;;;;;6.39;38.36;102718.22;5118169;28;20055;-65
2022/03/01 14:46:00;;;;;;;17.73;9.20;;;;;;;6.33;38.80;102718.84;5124184;28;20047;-65
2022/03/01 14:48:27;;;;;;;19.95;7.22;;;;;;;6.32;38.80;102712.81;5113384;28;20373;-60
2022/03/01 14:50:53;;;;;;;20.20;7.57;;;;;;;6.31;38.72;102708.50;5120048;28;20043;-60
2022/03/01 14:53:21;;;;;;;13.40;7.78;;;;;;;6.29;39.01;102710.13;5120194;28;20051;-60
2022/03/01 14:55:48;;;;;;;18.23;8.35;;;;;;;6.27;39.40;102708.31;5124289;28;20055;-62
2022/03/01 14:58:15;;;;;;;16.92;8.05;;;;;;;6.21;39.63;102703.75;5120402;28;20495;-62
2022/03/01 15:00:41;;;;;;;20.27;8.15;;;;;;;6.15;39.62;102707.78;5116490;28;20047;-62
2022/03/01 15:03:09;;;;;;;17.83;7.45;;;;;;;6.12;39.90;102692.22;5117912;28;20047;-63
2022/03/01 15:05:36;;;;;;;14.18;6.75;;;;;;;6.08;39.72;102698.94;5122699;28;20043;-61
2022/03/01 15:08:03;;;;;;;18.73;7.53;;;;;;;6.04;39.61;102694.47;5108169;28;20058;-60
2022/03/01 15:10:34;;;;;;;17.30;7.13;;;;;;;6.00;39.55;102690.00;5108389;28;20055;-58
2022/03/01 15:13:01;;;;;;;16.45;8.10;;;;;;;5.95;40.05;102688.94;5109730;28;20051;-59
2022/03/01 15:15:28;;;;;;;37.55;8.93;;;;;;;5.91;40.12;102692.22;5105677;28;20044;-59
2022/03/01 15:17:54;;;;;;;19.73;7.75;;;;;;;5.87;40.23;102687.72;5102136;28;20416;-58
2022/03/01 15:20:22;;;;;;;21.35;8.45;;;;;;;5.84;40.57;102679.88;5106594;28;20491;-64
2022/03/01 15:22:49;;;;;;;23.02;8.60;;;;;;;5.75;40.78;102682.06;5107214;28;20073;-59
2022/03/01 15:25:16;;;;;;;21.08;7.95;;;;;;;5.68;40.31;102679.19;5104446;28;20040;-64
2022/03/01 15:27:44;;;;;;;17.83;7.95;;;;;;;5.63;40.44;102682.38;5100518;28;20047;-62
2022/03/01 15:30:13;;;;;;;25.15;9.05;;;;;;;5.61;40.54;102687.47;5107044;28;20400;-58
2022/03/01 15:32:40;;;;;;;26.80;9.55;;;;;;;5.59;40.93;102678.81;5096876;28;20480;-61
2022/03/01 15:35:08;;;;;;;19.45;8.25;;;;;;;5.58;41.10;102681.31;5090125;28;20036;-56
2022/03/01 15:37:37;;;;;;;16.10;8.13;;;;;;;5.53;41.10;102678.53;5100509;28;20055;-55
2022/03/01 15:40:07;;;;;;;18.58;7.95;;;;;;;5.48;41.22;102679.16;5101138;28;20479;-58
2022/03/01 15:42:37;;;;;;;25.70;8.00;;;;;;;5.44;41.86;102678.16;5104301;28;20395;-60
2022/03/01 15:45:07;;;;;;;18.63;8.30;;;;;;;5.41;41.86;102678.03;5110037;28;20085;-60
2022/03/01 15:47:34;;;;;;;22.80;8.27;;;;;;;5.37;41.87;102676.13;5107615;28;20048;-65
2022/03/01 15:50:00;;;;;;;15.73;7.57;;;;;;;5.34;41.95;102674.31;5106388;28;22076;-66
2022/03/01 15:52:27;;;;;;;26.63;8.10;;;;;;;5.30;42.46;102668.97;5102749;28;20060;-63
2022/03/01 15:54:55;;;;;;;21.83;9.00;;;;;;;5.26;42.89;102672.22;5103129;28;20075;-64
2022/03/01 15:57:21;;;;;;;22.20;8.35;;;;;;;5.19;43.36;102665.88;5102919;28;20051;-63
2022/03/01 15:59:48;;;;;;;23.08;7.45;;;;;;;5.14;43.20;102664.81;5104762;28;20051;-60
2022/03/01 16:02:15;;;;;;;29.38;8.57;;;;;;;5.07;42.94;102657.63;5106035;28;20040;-62
2022/03/01 16:04:45;;;;;;;22.70;8.63;;;;;;;5.01;43.02;102660.81;5106723;28;20074;-62
2022/03/01 16:07:12;;;;;;;22.45;8.13;;;;;;;4.95;42.88;102660.53;5107617;28;20066;-61
2022/03/01 16:09:39;;;;;;;48.47;10.68;;;;;;;4.85;43.70;102653.25;5105230;28;20055;-61
2022/03/01 16:12:08;;;;;;;29.70;9.15;;;;;;;4.80;43.62;102658.97;5106147;28;20055;-59
2022/03/01 16:14:35;;;;;;;33.40;10.00;;;;;;;4.73;43.89;102657.81;5102277;28;20130;-59
2022/03/01 16:17:06;;;;;;;26.05;9.35;;;;;;;4.69;44.27;102650.78;5102357;28;20098;-61
2022/03/01 16:19:33;;;;;;;21.48;8.70;;;;;;;4.62;43.74;102652.16;5105482;28;20063;-61
2022/03/01 16:21:59;;;;;;;26.15;9.10;;;;;;;4.56;44.47;102653.56;5103272;28;20072;-59
2022/03/01 16:24:26;;;;;;;19.60;9.23;;;;;;;4.49;44.86;102648.97;5105863;28;20051;-60
2022/03/01 16:26:52;;;;;;;25.95;10.43;;;;;;;4.38;45.03;102648.47;5102158;28;20502;-61
2022/03/01 16:29:21;;;;;;;30.20;11.15;;;;;;;4.30;45.44;102655.78;5103745;27;20407;-60
2022/03/01 16:31:47;;;;;;;31.85;10.05;;;;;;;4.21;46.08;102652.78;5102157;28;20117;-61
2022/03/01 16:34:14;;;;;;;35.53;11.18;;;;;;;4.14;46.73;102653.28;5106518;27;20095;-59
2022/03/01 16:36:42;;;;;;;25.40;9.63;;;;;;;4.06;46.45;102644.31;5096632;28;20059;-62
2022/03/01 16:39:09;;;;;;;28.05;10.27;;;;;;;3.99;46.81;102647.41;5103956;27;20044;-58
2022/03/01 16:41:36;;;;;;;28.40;11.25;;;;;;;3.90;47.36;102652.97;5099704;28;20047;-59
2022/03/01 16:44:05;;;;;;;26.80;10.25;;;;;;;3.83;47.06;102648.34;5100942;28;20373;-59
2022/03/01 16:46:35;;;;;;;28.30;11.93;;;;;;;3.76;47.72;102652.28;5107560;28;20039;-59
2022/03/01 16:49:02;;;;;;;25.13;10.00;;;;;;;3.68;47.42;102650.16;5100473;28;20130;-59
2022/03/01 16:51:29;;;;;;;27.02;9.93;;;;;;;3.58;48.31;102651.34;5099944;28;20051;-60
2022/03/01 16:53:56;;;;;;;32.75;11.30;;;;;;;3.52;48.32;102653.59;5098980;28;20624;-59
2022/03/01 16:56:23;;;;;;;27.80;11.70;;;;;;;3.44;48.22;102655.78;5102778;28;20052;-59
2022/03/01 16:58:50;;;;;;;31.98;13.18;;;;;;;3.38;48.79;102662.28;5105887;28;20136;-60
2022/03/01 17:01:16;;;;;;;31.17;12.13;;;;;;;3.32;49.29;102656.84;5102037;28;20047;-62
2022/03/01 17:03:44;;;;;;;27.67;12.18;;;;;;;3.27;49.50;102663.41;5100294;28;20098;-60
2022/03/01 17:06:11;;;;;;;26.95;11.68;;;;;;;3.21;49.74;102657.97;5104741;28;20057;-59
2022/03/01 17:08:37;;;;;;;27.30;11.00;;;;;;;3.13;50.43;102658.47;5107190;28;20054;-59
2022/03/01 17:11:05;;;;;;;29.48;11.48;;;;;;;3.05;49.97;102659.72;5101796;28;20043;-60
2022/03/01 17:13:32;;;;;;;40.42;11.52;;;;;;;3.00;51.09;102660.25;5099388;28;20048;-59
2022/03/01 17:15:59;;;;;;;28.02;14.48;;;;;;;2.95;51.03;102661.69;5106160;28;20481;-59
2022/03/01 17:18:26;;;;;;;35.40;14.23;;;;;;;2.84;52.25;102666.25;5106145;28;20051;-60
2022/03/01 17:20:54;;;;;;;50.83;18.25;;;;;;;2.73;52.56;102660.56;5101999;28;20044;-60
2022/03/01 17:23:21;;;;;;;62.35;22.80;;;;;;;2.62;52.97;102660.78;5106413;28;20131;-60
2022/03/01 17:25:47;;;;;;;48.70;21.90;;;;;;;2.52;53.13;102657.69;5106375;28;20076;-60
2022/03/01 17:28:14;;;;;;;48.28;20.27;;;;;;;2.42;53.69;102652.88;5105581;28;20491;-60
2022/03/01 17:30:40;;;;;;;43.83;18.08;;;;;;;2.32;54.79;102654.84;5103472;28;20418;-61
2022/03/01 17:33:07;;;;;;;36.75;17.30;;;;;;;2.25;54.71;102658.75;5100641;28;20043;-60
2022/03/01 17:35:34;;;;;;;43.95;18.30;;;;;;;2.20;54.89;102660.16;5099088;28;20052;-62
2022/03/01 17:38:02;;;;;;;52.30;19.88;;;;;;;2.15;55.50;102653.91;5106410;28;20043;-59
2022/03/01 17:40:29;;;;;;;45.47;21.50;;;;;;;2.08;55.39;102652.69;5106059;28;20055;-59
2022/03/01 17:42:56;;;;;;;47.78;20.67;;;;;;;2.04;55.81;102652.38;5105609;28;20070;-61
2022/03/01 17:45:23;;;;;;;51.00;22.58;;;;;;;2.01;55.06;102649.66;5099559;28;20040;-61
2022/03/01 17:47:52;;;;;;;51.72;21.92;;;;;;;1.98;55.34;102652.03;5103078;28;20044;-59
2022/03/01 17:50:19;;;;;;;43.67;19.67;;;;;;;1.96;55.27;102645.97;5101440;28;20059;-61
2022/03/01 17:52:45;;;;;;;51.63;20.10;;;;;;;1.94;55.07;102645.88;5105924;28;20055;-61
2022/03/01 17:55:13;;;;;;;50.20;21.13;;;;;;;1.92;55.64;102641.47;5102353;28;20048;-60
2022/03/01 17:57:40;;;;;;;60.53;23.02;;;;;;;1.87;55.81;102647.19;5105165;28;20063;-60
2022/03/01 18:00:09;;;;;;;53.85;23.83;;;;;;;1.84;56.57;102647.03;5099159;28;20039;-61
2022/03/01 18:02:35;;;;;;;64.53;27.17;;;;;;;1.80;56.62;102647.66;5105645;28;20044;-59
2022/03/01 18:05:03;;;;;;;49.60;21.67;;;;;;;1.75;56.50;102638.84;5106297;28;20047;-62
2022/03/01 18:07:30;;;;;;;52.40;22.08;;;;;;;1.72;56.90;102643.78;5106936;28;20140;-59
2022/03/01 18:09:56;;;;;;;53.80;22.15;;;;;;;1.72;56.53;102650.56;5102093;28;20130;-60
2022/03/01 18:12:24;;;;;;;60.95;24.50;;;;;;;1.70;56.79;102649.59;5102013;28;20067;-62
2022/03/01 18:14:51;;;;;;;45.45;21.75;;;;;;;1.67;57.13;102645.19;5106082;28;20066;-60
2022/03/01 18:17:17;;;;;;;49.38;22.23;;;;;;;1.64;57.26;102639.91;5101668;28;20045;-62
2022/03/01 18:19:44;;;;;;;52.65;23.08;;;;;;;1.61;57.10;102638.84;5101851;28;20059;-60
2022/03/01 18:22:10;;;;;;;55.38;22.50;;;;;;;1.58;57.44;102634.44;5103177;28;20139;-60
2022/03/01 18:24:37;;;;;;;62.20;22.58;;;;;;;1.55;57.66;102639.31;5104657;28;20415;-59
2022/03/01 18:27:04;;;;;;;60.28;20.80;;;;;;;1.51;57.84;102630.59;5104785;28;20044;-60
2022/03/01 18:29:32;;;;;;;58.25;21.50;;;;;;;1.50;57.90;102635.63;5101524;28;20059;-60
2022/03/01 18:31:58;;;;;;;52.25;22.77;;;;;;;1.47;58.50;102640.56;5102437;28;20052;-60
2022/03/01 18:34:26;;;;;;;53.78;21.42;;;;;;;1.42;58.75;102630.06;5105909;28;20052;-60
2022/03/01 18:36:52;;;;;;;61.10;25.73;;;;;;;1.34;59.40;102633.84;5099056;28;20404;-61
2022/03/01 18:39:19;;;;;;;56.90;23.23;;;;;;;1.30;59.25;102637.00;5077383;28;20063;-59
2022/03/01 18:41:46;;;;;;;54.08;26.00;;;;;;;1.23;59.83;102635.78;5077879;28;20504;-60
2022/03/01 18:44:13;;;;;;;56.05;23.70;;;;;;;1.18;59.71;102632.06;5081080;28;20057;-60
2022/03/01 18:46:41;;;;;;;65.18;24.60;;;;;;;1.13;59.98;102633.47;5084522;28;20050;-59
2022/03/01 18:49:08;;;;;;;49.13;22.70;;;;;;;1.09;60.04;102641.72;5080849;28;20059;-61
2022/03/01 18:51:35;;;;;;;62.75;24.77;;;;;;;1.04;60.32;102642.22;5079830;28;20041;-61
2022/03/01 18:54:02;;;;;;;75.07;26.98;;;;;;;0.96;60.53;102644.31;5081846;28;20044;-60
2022/03/01 18:56:30;;;;;;;52.72;24.02;;;;;;;0.90;60.81;102639.72;5082506;28;20130;-61
2022/03/01 18:58:57;;;;;;;63.00;27.38;;;;;;;0.84;60.57;102643.56;5082806;28;20401;-58
2022/03/01 19:01:24;;;;;;;85.80;35.03;;;;;;;0.78;60.87;102643.19;5082904;28;20074;-60
2022/03/01 19:03:53;;;;;;;99.40;40.45;;;;;;;0.73;60.75;102644.56;5090043;28;20453;-60
2022/03/01 19:06:21;;;;;;;271.67;92.95;;;;;;;0.69;61.15;102634.97;5083306;28;20984;-60
2022/03/01 19:08:49;;;;;;;285.38;107.15;;;;;;;0.65;61.50;102633.00;5082835;28;20048;-60
2022/03/01 19:11:16;;;;;;;340.33;119.90;;;;;;;0.59;61.59;102626.75;5088801;28;20055;-60
2022/03/01 19:13:43;;;;;;;568.78;259.88;;;;;;;0.56;61.79;102626.56;5079928;28;20056;-60
2022/03/01 19:16:09;;;;;;;199.90;77.13;;;;;;;0.52;62.07;102628.78;5076352;28;20793;-60
2022/03/01 19:18:36;;;;;;;135.10;59.63;;;;;;;0.48;62.34;102637.03;5084333;28;20044;-60
2022/03/01 19:21:04;;;;;;;126.13;55.90;;;;;;;0.45;62.67;102627.53;5081382;28;20051;-59
2022/03/01 19:23:31;;;;;;;94.93;41.55;;;;;;;0.43;62.57;102624.00;5081712;28;20066;-60
2022/03/01 19:25:58;;;;;;;91.15;40.22;;;;;;;0.41;62.30;102620.47;5080481;28;20060;-60
2022/03/01 19:28:25;;;;;;;148.40;62.22;;;;;;;0.38;62.47;102620.28;5077703;28;20055;-60
2022/03/01 19:30:51;;;;;;;186.63;87.35;;;;;;;0.32;62.44;102617.34;5079336;28;20679;-60
2022/03/01 19:33:18;;;;;;;153.25;68.55;;;;;;;0.29;62.53;102619.69;5080908;28;20055;-60
2022/03/01 19:35:45;;;;;;;110.10;47.65;;;;;;;0.28;62.47;102633.25;5080716;28;20055;-59
2022/03/01 19:38:14;;;;;;;102.03;46.10;;;;;;;0.27;62.75;102628.94;5082661;28;20484;-58
2022/03/01 19:40:40;;;;;;;89.68;42.15;;;;;;;0.26;62.97;102629.72;5085087;28;20060;-61
2022/03/01 19:43:08;;;;;;;95.85;39.08;;;;;;;0.25;62.75;102633.06;5079816;28;20059;-61
2022/03/01 19:45:36;;;;;;;93.70;42.80;;;;;;;0.23;63.29;102637.16;5079408;28;20432;-60
2022/03/01 19:48:04;;;;;;;113.00;47.00;;;;;;;0.19;63.23;102632.66;5080379;28;20048;-60
2022/03/01 19:50:31;;;;;;;127.15;49.60;;;;;;;0.16;62.92;102622.28;5081219;28;20510;-61
2022/03/01 19:53:00;;;;;;;274.50;99.68;;;;;;;0.13;62.74;102633.16;5081046;28;20056;-59
2022/03/01 19:55:28;;;;;;;239.80;83.68;;;;;;;0.10;62.97;102621.88;5082291;28;20140;-60
